Time;durP1;ratioP1;P1;durP2;ratioP2;P2;SDS_P1;SDS_P2;PMS_P1;PMS_P2;Temp;Humidity;BMP_temperature;BMP_pressure;BME280_temperature;BME280_humidity;BME280_pressure;Samples;Min_cycle;Max_cycle;Signal;HPM_P1;HPM_P2
2023/02/07 00:01:41;0.00;0.00;0.62;0.00;0.00;0.62;1.90;1.20;;;22.50;23.90;;;;;;2259676;61;20461;-68
2023/02/07 00:04:27;0.00;0.00;0.62;0.00;0.00;0.62;1.70;1.00;;;22.50;23.80;;;;;;2260442;61;20392;-70
2023/02/07 00:07:11;0.00;0.00;0.62;0.00;0.00;0.62;1.77;1.20;;;22.50;23.80;;;;;;2260693;61;20365;-69
2023/02/07 00:09:56;0.00;0.00;0.62;0.00;0.00;0.62;1.80;1.40;;;22.50;23.80;;;;;;2256249;61;20807;-69
2023/02/07 00:12:41;0.00;0.00;0.62;0.00;0.00;0.62;1.97;1.10;;;22.40;23.70;;;;;;2260810;61;20885;-69
2023/02/07 00:15:27;0.00;0.00;0.62;0.00;0.00;0.62;1.83;1.10;;;22.40;23.60;;;;;;2260533;61;20763;-68
2023/02/07 00:18:11;0.00;0.00;0.62;0.00;0.00;0.62;1.87;1.40;;;22.40;23.60;;;;;;2259644;61;20389;-68
2023/02/07 00:21:03;0.00;0.00;0.62;0.00;0.00;0.62;1.73;1.17;;;22.40;23.60;;;;;;2261326;61;20384;-64
2023/02/07 00:23:48;0.00;0.00;0.62;0.00;0.00;0.62;2.17;1.40;;;22.40;23.60;;;;;;2264170;61;20411;-65
2023/02/07 00:26:33;0.00;0.00;0.62;0.00;0.00;0.62;2.67;1.37;;;22.40;23.70;;;;;;2263845;61;20363;-66
2023/02/07 00:29:18;0.00;0.00;0.62;0.00;0.00;0.62;1.87;1.20;;;22.40;23.80;;;;;;2261195;61;20908;-65
2023/02/07 00:32:04;0.00;0.00;0.62;0.00;0.00;0.62;1.97;1.30;;;22.40;23.80;;;;;;2263788;61;20975;-65
2023/02/07 00:34:49;0.00;0.00;0.62;0.00;0.00;0.62;1.80;1.00;;;22.40;23.80;;;;;;2263036;61;20888;-66
2023/02/07 00:37:35;0.00;0.00;0.62;0.00;0.00;0.62;1.70;1.10;;;22.30;23.80;;;;;;2256178;61;20470;-66
2023/02/07 00:40:22;0.00;0.00;0.62;0.00;0.00;0.62;1.50;1.00;;;22.30;23.80;;;;;;2256594;61;20381;-65
2023/02/07 00:43:07;0.00;0.00;0.62;0.00;0.00;0.62;1.50;1.00;;;22.30;23.90;;;;;;2260073;61;20416;-67
2023/02/07 00:45:52;0.00;0.00;0.62;0.00;0.00;0.62;1.70;1.00;;;22.30;23.90;;;;;;2256864;61;20364;-64
2023/02/07 00:48:40;0.00;0.00;0.62;0.00;0.00;0.62;1.60;1.00;;;22.30;23.90;;;;;;2260233;61;20787;-65
2023/02/07 00:51:27;0.00;0.00;0.62;0.00;0.00;0.62;1.60;1.00;;;22.30;23.90;;;;;;2256598;61;20396;-66
2023/02/07 00:54:13;0.00;0.00;0.62;0.00;0.00;0.62;1.50;0.90;;;22.30;23.90;;;;;;2259611;61;20388;-65
2023/02/07 00:56:58;0.00;0.00;0.62;0.00;0.00;0.62;2.17;1.20;;;22.30;24.00;;;;;;2259588;61;20768;-66
2023/02/07 00:59:42;0.00;0.00;0.62;0.00;0.00;0.62;1.70;1.20;;;22.30;24.00;;;;;;2259962;61;20364;-66
2023/02/07 01:02:27;0.00;0.00;0.62;0.00;0.00;0.62;1.60;1.10;;;22.30;24.00;;;;;;2259874;61;20419;-65
2023/02/07 01:05:13;0.00;0.00;0.62;0.00;0.00;0.62;2.00;1.17;;;22.20;23.90;;;;;;2259762;61;20435;-67
2023/02/07 01:07:58;0.00;0.00;0.62;0.00;0.00;0.62;1.53;0.93;;;22.20;24.00;;;;;;2256807;61;20360;-64
2023/02/07 01:10:45;0.00;0.00;0.62;0.00;0.00;0.62;1.80;1.20;;;22.20;24.50;;;;;;2256469;61;20933;-65
2023/02/07 01:13:30;0.00;0.00;0.62;0.00;0.00;0.62;1.97;1.33;;;22.20;24.00;;;;;;2259536;61;20377;-66
2023/02/07 01:16:19;0.00;0.00;0.62;0.00;0.00;0.62;1.73;1.00;;;22.20;24.10;;;;;;2259305;61;20411;-67
2023/02/07 01:19:10;0.00;0.00;0.62;0.00;0.00;0.62;2.00;1.37;;;22.20;24.20;;;;;;2253731;61;20500;-65
2023/02/07 01:21:58;0.00;0.00;0.62;0.00;0.00;0.62;2.10;1.10;;;22.20;24.20;;;;;;2257040;61;20376;-64
2023/02/07 01:24:43;0.00;0.00;0.62;0.00;0.00;0.62;2.00;1.10;;;22.20;24.20;;;;;;2258819;61;20671;-65
2023/02/07 01:27:29;0.00;0.00;0.62;0.00;0.00;0.62;1.87;1.10;;;22.20;24.20;;;;;;2259087;61;20834;-65
2023/02/07 01:30:14;0.00;0.00;0.62;0.00;0.00;0.62;1.80;1.10;;;22.20;24.20;;;;;;2260102;61;20411;-65
2023/02/07 01:32:59;0.00;0.00;0.62;0.00;0.00;0.62;2.00;1.20;;;22.20;24.20;;;;;;2259724;61;20454;-63
2023/02/07 01:35:45;0.00;0.00;0.62;0.00;0.00;0.62;1.67;1.20;;;22.20;24.20;;;;;;2259749;61;20353;-65
2023/02/07 01:38:30;0.00;0.00;0.62;0.00;0.00;0.62;1.60;1.00;;;22.20;24.10;;;;;;2259774;61;20408;-63
2023/02/07 01:41:15;0.00;0.00;0.62;0.00;0.00;0.62;1.70;1.20;;;22.10;24.10;;;;;;2256497;61;20792;-66
2023/02/07 01:44:05;0.00;0.00;0.62;0.00;0.00;0.62;2.70;1.40;;;22.10;24.10;;;;;;2260167;61;20499;-66
2023/02/07 01:46:51;0.00;0.00;0.62;0.00;0.00;0.62;1.70;1.20;;;22.10;24.20;;;;;;2259573;61;20364;-64
2023/02/07 01:49:37;0.00;0.00;0.62;0.00;0.00;0.62;1.80;1.30;;;22.10;24.20;;;;;;2259752;61;20417;-66
2023/02/07 01:52:27;0.00;0.00;0.62;0.00;0.00;0.62;1.90;1.10;;;22.10;24.20;;;;;;2259343;61;20369;-65
2023/02/07 01:55:17;0.00;0.00;0.62;0.00;0.00;0.62;4.77;4.37;;;22.10;24.20;;;;;;2260049;61;20973;-65
2023/02/07 01:58:04;0.00;0.00;0.62;0.00;0.00;0.62;5.23;4.73;;;22.10;23.40;;;;;;2256475;61;20415;-64
2023/02/07 02:00:51;0.00;0.00;0.62;0.00;0.00;0.62;3.83;3.43;;;22.00;21.50;;;;;;2256246;61;20427;-65
2023/02/07 02:03:42;0.00;0.00;0.62;0.00;0.00;0.62;2.90;2.60;;;21.90;22.00;;;;;;2259931;61;20392;-68
2023/02/07 02:06:30;0.00;0.00;0.62;0.00;0.00;0.62;3.00;2.60;;;21.80;22.40;;;;;;2259960;61;20741;-66
2023/02/07 02:09:16;0.00;0.00;0.62;0.00;0.00;0.62;3.03;2.37;;;21.70;22.70;;;;;;2256688;61;20866;-71
2023/02/07 02:12:25;0.00;0.00;0.62;0.00;0.00;0.62;2.87;2.30;;;21.70;22.90;;;;;;2259549;61;20872;-66
2023/02/07 02:15:29;0.00;0.00;0.62;0.00;0.00;0.62;2.33;1.90;;;21.70;23.10;;;;;;2259563;61;20423;-65
2023/02/07 02:18:41;0.00;0.00;0.62;0.00;0.00;0.62;2.40;1.87;;;21.60;23.20;;;;;;2259484;61;20420;-67
2023/02/07 02:22:21;0.00;0.00;0.62;0.00;0.00;0.62;2.20;1.57;;;21.60;23.30;;;;;;2256688;61;20384;-65
2023/02/07 02:26:07;0.00;0.00;0.62;0.00;0.00;0.62;1.90;1.40;;;21.60;23.40;;;;;;2256827;61;20365;-66
2023/02/07 02:29:26;0.00;0.00;0.62;0.00;0.00;0.62;2.10;1.43;;;21.60;23.40;;;;;;2259860;61;20373;-64
2023/02/07 02:32:59;0.00;0.00;0.62;0.00;0.00;0.62;1.93;1.60;;;21.60;23.50;;;;;;2260271;61;20411;-65
2023/02/07 02:35:54;0.00;0.00;0.62;0.00;0.00;0.62;2.60;1.43;;;21.60;23.60;;;;;;2259891;61;20404;-66
2023/02/07 02:38:47;0.00;0.00;0.62;0.00;0.00;0.62;1.80;1.50;;;21.60;23.60;;;;;;2256415;61;20412;-64
2023/02/07 02:41:40;0.00;0.00;0.62;0.00;0.00;0.62;1.80;1.37;;;21.60;24.20;;;;;;2256659;61;20440;-64
2023/02/07 02:44:32;0.00;0.00;0.62;0.00;0.00;0.62;2.03;1.60;;;21.60;23.70;;;;;;2256596;61;20396;-65
2023/02/07 02:47:19;0.00;0.00;0.62;0.00;0.00;0.62;2.50;1.47;;;21.60;23.70;;;;;;2256780;61;20439;-64
2023/02/07 02:50:09;0.00;0.00;0.62;0.00;0.00;0.62;1.83;1.20;;;21.60;23.70;;;;;;2256414;61;20404;-65
2023/02/07 02:52:56;0.00;0.00;0.62;0.00;0.00;0.62;1.70;1.20;;;21.50;24.20;;;;;;2259060;61;20935;-65
2023/02/07 02:56:38;0.00;0.00;0.62;0.00;0.00;0.62;2.20;1.50;;;21.60;23.70;;;;;;2257630;61;20368;-65
2023/02/07 02:59:49;0.00;0.00;0.62;0.00;0.00;0.62;2.57;1.50;;;21.60;23.80;;;;;;2243857;61;20375;-66
2023/02/07 03:02:50;0.00;0.00;0.62;0.00;0.00;0.62;2.03;1.33;;;21.60;23.80;;;;;;2257426;61;20357;-65
2023/02/07 03:05:48;0.00;0.00;0.62;0.00;0.00;0.62;1.70;1.30;;;21.60;23.80;;;;;;2260309;61;20368;-65
2023/02/07 03:08:44;0.00;0.00;0.62;0.00;0.00;0.62;1.93;1.27;;;21.60;23.80;;;;;;2259912;61;20364;-65
2023/02/07 03:11:32;0.00;0.00;0.62;0.00;0.00;0.62;1.67;1.10;;;21.60;23.80;;;;;;2259938;61;20405;-65
2023/02/07 03:14:29;0.00;0.00;0.62;0.00;0.00;0.62;1.70;1.20;;;21.60;23.80;;;;;;2259674;61;20404;-66
2023/02/07 03:17:20;0.00;0.00;0.62;0.00;0.00;0.62;1.90;1.40;;;21.60;23.80;;;;;;2257099;61;20763;-66
2023/02/07 03:20:10;0.00;0.00;0.62;0.00;0.00;0.62;2.00;1.30;;;21.60;23.90;;;;;;2260830;61;20384;-66
2023/02/07 03:22:59;0.00;0.00;0.62;0.00;0.00;0.62;2.20;1.77;;;21.60;23.90;;;;;;2257157;61;20432;-65
2023/02/07 03:25:45;0.00;0.00;0.62;0.00;0.00;0.62;1.50;1.07;;;21.60;23.90;;;;;;2257355;61;20373;-67
2023/02/07 03:28:32;0.00;0.00;0.62;0.00;0.00;0.62;1.73;1.20;;;21.60;23.90;;;;;;2259974;61;20376;-65
2023/02/07 03:31:20;0.00;0.00;0.62;0.00;0.00;0.62;2.73;1.30;;;21.60;23.90;;;;;;2256947;61;20447;-65
2023/02/07 03:34:10;0.00;0.00;0.62;0.00;0.00;0.62;2.50;1.20;;;21.60;23.90;;;;;;2260197;61;20369;-66
2023/02/07 03:37:02;0.00;0.00;0.62;0.00;0.00;0.62;1.77;1.20;;;21.60;24.00;;;;;;2259860;61;20838;-70
2023/02/07 03:39:49;0.00;0.00;0.62;0.00;0.00;0.62;1.70;1.10;;;21.60;24.00;;;;;;2257067;61;20369;-65
2023/02/07 03:42:41;0.00;0.00;0.62;0.00;0.00;0.62;2.00;1.30;;;21.50;23.90;;;;;;2256690;61;20445;-66
2023/02/07 03:45:26;0.00;0.00;0.62;0.00;0.00;0.62;1.90;1.30;;;21.50;23.90;;;;;;2256125;61;20370;-64
2023/02/07 03:48:11;0.00;0.00;0.62;0.00;0.00;0.62;1.77;1.30;;;21.60;24.00;;;;;;2255592;61;20784;-65
2023/02/07 03:50:55;0.00;0.00;0.62;0.00;0.00;0.62;1.73;1.20;;;21.60;24.00;;;;;;2253104;61;20917;-66
2023/02/07 03:53:40;0.00;0.00;0.62;0.00;0.00;0.62;1.70;1.10;;;21.50;23.90;;;;;;2257420;61;20361;-65
2023/02/07 03:56:26;0.00;0.00;0.62;0.00;0.00;0.62;1.60;1.10;;;21.50;23.90;;;;;;2260033;61;20431;-66
2023/02/07 03:59:11;0.00;0.00;0.62;0.00;0.00;0.62;1.90;1.10;;;21.50;23.90;;;;;;2260080;61;20465;-66
2023/02/07 04:01:56;0.00;0.00;0.62;0.00;0.00;0.62;1.77;1.10;;;21.50;24.00;;;;;;2260353;61;20830;-69
2023/02/07 04:04:41;0.00;0.00;0.62;0.00;0.00;0.62;1.77;1.30;;;21.50;23.90;;;;;;2260413;61;20365;-66
2023/02/07 04:07:26;0.00;0.00;0.62;0.00;0.00;0.62;1.93;1.00;;;21.50;23.90;;;;;;2259937;61;20369;-63
2023/02/07 04:10:11;0.00;0.00;0.62;0.00;0.00;0.62;1.63;1.20;;;21.50;23.90;;;;;;2260274;61;20835;-65
2023/02/07 04:12:57;0.00;0.00;0.62;0.00;0.00;0.62;1.60;1.00;;;21.50;24.00;;;;;;2257164;61;20365;-65
2023/02/07 04:15:42;0.00;0.00;0.62;0.00;0.00;0.62;1.47;0.90;;;21.50;23.90;;;;;;2260225;61;20423;-65
2023/02/07 04:18:27;0.00;0.00;0.62;0.00;0.00;0.62;1.73;1.20;;;21.50;24.00;;;;;;2260081;61;20462;-65
2023/02/07 04:21:12;0.00;0.00;0.62;0.00;0.00;0.62;1.73;1.10;;;21.50;23.90;;;;;;2256792;61;20396;-65
2023/02/07 04:23:57;0.00;0.00;0.62;0.00;0.00;0.62;1.53;0.97;;;21.50;24.00;;;;;;2261795;61;20512;-69
2023/02/07 04:26:41;0.00;0.00;0.62;0.00;0.00;0.62;1.57;0.90;;;21.50;24.00;;;;;;2264509;61;20935;-65
2023/02/07 04:29:28;0.00;0.00;0.62;0.00;0.00;0.62;2.00;1.00;;;21.50;24.00;;;;;;2263733;61;20446;-65
2023/02/07 04:32:12;0.00;0.00;0.62;0.00;0.00;0.62;1.90;1.47;;;21.50;24.00;;;;;;2263782;61;20845;-66
2023/02/07 04:34:57;0.00;0.00;0.62;0.00;0.00;0.62;1.70;1.00;;;21.50;24.00;;;;;;2263905;61;20360;-66
2023/02/07 04:37:42;0.00;0.00;0.62;0.00;0.00;0.62;1.40;0.93;;;21.50;24.00;;;;;;2263911;61;20904;-66
2023/02/07 04:40:26;0.00;0.00;0.62;0.00;0.00;0.62;1.60;1.10;;;21.50;24.00;;;;;;2263754;61;20383;-65
2023/02/07 04:43:11;0.00;0.00;0.62;0.00;0.00;0.62;1.80;1.30;;;21.50;24.00;;;;;;2263689;61;20368;-66
2023/02/07 04:45:57;0.00;0.00;0.62;0.00;0.00;0.62;1.70;1.10;;;21.50;24.00;;;;;;2264417;61;20360;-66
2023/02/07 04:48:42;0.00;0.00;0.62;0.00;0.00;0.62;1.73;1.20;;;21.50;24.00;;;;;;2264395;61;20819;-66
2023/02/07 04:51:26;0.00;0.00;0.62;0.00;0.00;0.62;1.53;1.00;;;21.50;24.00;;;;;;2263166;61;20403;-65
2023/02/07 04:54:11;0.00;0.00;0.62;0.00;0.00;0.62;1.73;0.90;;;21.50;24.00;;;;;;2263266;61;20450;-65
2023/02/07 04:56:56;0.00;0.00;0.62;0.00;0.00;0.62;1.80;1.00;;;21.50;24.00;;;;;;2263532;61;20360;-66
2023/02/07 04:59:41;0.00;0.00;0.62;0.00;0.00;0.62;1.90;0.97;;;21.50;24.00;;;;;;2263476;61;20360;-66
2023/02/07 05:02:27;0.00;0.00;0.62;0.00;0.00;0.62;1.60;1.00;;;21.50;24.00;;;;;;2263511;61;20407;-65
2023/02/07 05:05:11;0.00;0.00;0.62;0.00;0.00;0.62;1.83;1.13;;;21.50;24.00;;;;;;2263149;61;20368;-65
2023/02/07 05:07:56;0.00;0.00;0.62;0.00;0.00;0.62;1.30;0.90;;;21.40;24.50;;;;;;2263504;61;20403;-66
2023/02/07 05:10:40;0.00;0.00;0.62;0.00;0.00;0.62;1.30;0.80;;;21.50;24.00;;;;;;2263808;61;20945;-64
2023/02/07 05:13:26;0.00;0.00;0.62;0.00;0.00;0.62;1.40;0.90;;;21.50;24.00;;;;;;2262983;61;20355;-65
2023/02/07 05:16:11;0.00;0.00;0.62;0.00;0.00;0.62;1.80;1.00;;;21.40;24.00;;;;;;2263114;61;20903;-65
2023/02/07 05:18:56;0.00;0.00;0.62;0.00;0.00;0.62;1.53;1.00;;;21.40;24.00;;;;;;2264037;61;20749;-64
2023/02/07 05:21:41;0.00;0.00;0.62;0.00;0.00;0.62;1.50;0.90;;;21.50;23.90;;;;;;2263471;61;20384;-65
2023/02/07 05:24:26;0.00;0.00;0.62;0.00;0.00;0.62;1.50;0.90;;;21.50;23.90;;;;;;2263643;61;20399;-67
2023/02/07 05:27:11;0.00;0.00;0.62;0.00;0.00;0.62;1.60;1.00;;;21.50;23.90;;;;;;2263645;61;20368;-65
2023/02/07 05:29:58;0.00;0.00;0.62;0.00;0.00;0.62;1.60;1.00;;;21.50;23.90;;;;;;2264012;61;20456;-65
2023/02/07 05:35:47;0.00;0.00;0.62;0.00;0.00;0.62;1.53;1.00;;;21.50;23.90;;;;;;2263341;61;20402;-65
2023/02/07 05:38:32;0.00;0.00;0.62;0.00;0.00;0.62;2.40;1.30;;;21.50;24.00;;;;;;2263650;61;20786;-65
2023/02/07 05:41:17;0.00;0.00;0.62;0.00;0.00;0.62;1.30;0.80;;;21.50;24.00;;;;;;2263553;61;20950;-65
2023/02/07 05:44:02;0.00;0.00;0.62;0.00;0.00;0.62;1.50;0.90;;;21.40;23.90;;;;;;2263718;61;20368;-64
2023/02/07 05:46:47;0.00;0.00;0.62;0.00;0.00;0.62;1.87;1.00;;;21.40;23.90;;;;;;2263281;61;20413;-64
2023/02/07 05:49:32;0.00;0.00;0.62;0.00;0.00;0.62;1.40;0.90;;;21.40;23.90;;;;;;2263411;61;20406;-65
2023/02/07 05:52:18;0.00;0.00;0.62;0.00;0.00;0.62;1.50;0.90;;;21.40;23.90;;;;;;2263631;61;20399;-66
2023/02/07 05:55:04;0.00;0.00;0.62;0.00;0.00;0.62;1.33;0.90;;;21.40;23.90;;;;;;2263700;61;20425;-64
2023/02/07 05:57:49;0.00;0.00;0.62;0.00;0.00;0.62;1.57;1.00;;;21.40;23.90;;;;;;2263199;61;20368;-65
2023/02/07 06:00:34;0.00;0.00;0.62;0.00;0.00;0.62;1.60;0.97;;;21.40;24.00;;;;;;2260399;61;20787;-66
2023/02/07 06:03:18;0.00;0.00;0.62;0.00;0.00;0.62;1.30;0.90;;;21.40;24.00;;;;;;2263601;61;20364;-65
2023/02/07 06:06:04;0.00;0.00;0.62;0.00;0.00;0.62;2.17;1.10;;;21.30;23.90;;;;;;2263630;61;20435;-64
2023/02/07 06:08:50;0.00;0.00;0.62;0.00;0.00;0.62;1.73;1.00;;;21.40;24.00;;;;;;2263547;61;20391;-64
2023/02/07 06:11:35;0.00;0.00;0.62;0.00;0.00;0.62;1.40;1.00;;;21.40;24.00;;;;;;2263651;61;20392;-67
2023/02/07 06:14:19;0.00;0.00;0.62;0.00;0.00;0.62;1.50;0.87;;;21.40;24.00;;;;;;2263833;61;20824;-65
2023/02/07 06:17:04;0.00;0.00;0.62;0.00;0.00;0.62;1.60;0.80;;;21.30;23.90;;;;;;2263285;61;21026;-66
2023/02/07 06:19:49;0.00;0.00;0.62;0.00;0.00;0.62;1.80;1.17;;;21.30;23.90;;;;;;2263233;61;20813;-64
2023/02/07 06:22:34;0.00;0.00;0.62;0.00;0.00;0.62;1.33;0.90;;;21.30;23.90;;;;;;2263540;61;20368;-65
2023/02/07 06:25:20;0.00;0.00;0.62;0.00;0.00;0.62;1.57;1.10;;;21.30;23.90;;;;;;2263849;61;20363;-65
2023/02/07 06:28:05;0.00;0.00;0.62;0.00;0.00;0.62;1.70;1.20;;;21.30;24.00;;;;;;2263080;61;20372;-66
2023/02/07 06:30:50;0.00;0.00;0.62;0.00;0.00;0.62;1.40;0.87;;;21.30;24.00;;;;;;2263359;61;20410;-67
2023/02/07 06:33:35;0.00;0.00;0.62;0.00;0.00;0.62;2.23;1.67;;;21.30;24.00;;;;;;2264470;61;20372;-70
2023/02/07 06:36:20;0.00;0.00;0.62;0.00;0.00;0.62;3.10;2.67;;;21.30;23.90;;;;;;2263972;61;20847;-67
2023/02/07 06:39:04;0.00;0.00;0.62;0.00;0.00;0.62;3.73;3.33;;;21.30;23.80;;;;;;2264078;61;20375;-65
2023/02/07 06:41:51;0.00;0.00;0.62;0.00;0.00;0.62;3.10;2.70;;;21.20;23.50;;;;;;2263489;61;20391;-63
2023/02/07 06:44:35;0.00;0.00;0.62;0.00;0.00;0.62;3.90;3.33;;;21.20;23.50;;;;;;2263386;61;20400;-62
2023/02/07 06:47:20;0.00;0.00;0.62;0.00;0.00;0.62;3.20;2.60;;;21.20;23.40;;;;;;2262911;61;20363;-63
2023/02/07 06:50:06;0.00;0.00;0.62;0.00;0.00;0.62;2.70;2.37;;;21.10;23.40;;;;;;2263562;61;20399;-64
2023/02/07 06:52:51;0.00;0.00;0.62;0.00;0.00;0.62;3.27;2.67;;;21.10;23.40;;;;;;2263362;61;20414;-64
2023/02/07 06:55:38;0.00;0.00;0.62;0.00;0.00;0.62;3.13;2.83;;;21.10;23.50;;;;;;2263715;61;20364;-63
2023/02/07 06:58:24;0.00;0.00;0.62;0.00;0.00;0.62;4.20;3.40;;;21.00;23.30;;;;;;2259718;61;20375;-63
2023/02/07 07:01:08;0.00;0.00;0.62;0.00;0.00;0.62;3.20;2.73;;;21.00;23.30;;;;;;2259634;61;20905;-65
2023/02/07 07:03:53;0.00;0.00;0.62;0.00;0.00;0.62;3.77;3.07;;;21.00;23.30;;;;;;2331782;58;20372;-64
2023/02/07 07:06:38;0.00;0.00;0.62;0.00;0.00;0.62;3.73;3.27;;;21.00;23.20;;;;;;2259334;61;20369;-64
2023/02/07 07:09:22;0.00;0.00;0.62;0.00;0.00;0.62;3.43;3.13;;;21.00;23.10;;;;;;2259843;61;20396;-64
2023/02/07 07:12:07;0.00;0.00;0.62;0.00;0.00;0.62;3.83;2.97;;;20.90;23.00;;;;;;2255704;61;20786;-65
2023/02/07 07:14:53;0.00;0.00;0.62;0.00;0.00;0.62;3.73;3.13;;;20.90;23.00;;;;;;2259255;61;20952;-64
2023/02/07 07:17:38;0.00;0.00;0.62;0.00;0.00;0.62;3.40;3.10;;;20.90;22.90;;;;;;2258965;61;20488;-61
2023/02/07 07:20:23;0.00;0.00;0.62;0.00;0.00;0.62;3.40;3.10;;;20.90;22.80;;;;;;2259063;61;20560;-66
2023/02/07 07:23:08;0.00;0.00;0.62;0.00;0.00;0.62;3.40;3.10;;;20.80;22.80;;;;;;2259510;61;20368;-65
2023/02/07 07:25:52;0.00;0.00;0.62;0.00;0.00;0.62;3.63;3.33;;;20.80;22.90;;;;;;2259290;61;20368;-63
2023/02/07 07:28:37;0.00;0.00;0.62;0.00;0.00;0.62;5.03;3.97;;;20.80;22.80;;;;;;2259919;61;20369;-63
2023/02/07 07:31:23;0.00;0.00;0.62;0.00;0.00;0.62;4.03;3.20;;;20.80;22.80;;;;;;2259579;61;20420;-61
2023/02/07 07:34:07;0.00;0.00;0.62;0.00;0.00;0.62;3.60;3.30;;;20.80;22.80;;;;;;2258944;61;20411;-62
2023/02/07 07:36:55;0.00;0.00;0.62;0.00;0.00;0.62;3.50;3.20;;;20.70;22.80;;;;;;2259233;61;20815;-64
2023/02/07 07:39:40;0.00;0.00;0.62;0.00;0.00;0.62;5.50;2.77;;;20.70;22.90;;;;;;2259786;61;20769;-64
2023/02/07 07:42:24;0.00;0.00;0.62;0.00;0.00;0.62;3.20;2.77;;;20.70;23.00;;;;;;2260016;61;20411;-62
2023/02/07 07:45:21;0.00;0.00;0.62;0.00;0.00;0.62;4.07;2.30;;;20.70;23.00;;;;;;2257203;61;20859;-63
2023/02/07 07:48:07;0.00;0.00;0.62;0.00;0.00;0.62;4.50;2.83;;;20.70;23.00;;;;;;2259446;61;20873;-62
2023/02/07 07:50:52;0.00;0.00;0.62;0.00;0.00;0.62;2.83;2.20;;;20.70;23.00;;;;;;2260407;61;20385;-65
2023/02/07 07:53:37;0.00;0.00;0.62;0.00;0.00;0.62;2.63;2.20;;;20.70;23.00;;;;;;2260010;61;20443;-64
2023/02/07 07:56:21;0.00;0.00;0.62;0.00;0.00;0.62;5.40;2.70;;;20.70;23.00;;;;;;2259128;61;20361;-63
2023/02/07 07:59:07;0.00;0.00;0.62;0.00;0.00;0.62;2.40;1.93;;;20.70;23.00;;;;;;2259514;61;20388;-64
2023/02/07 08:01:52;0.00;0.00;0.62;0.00;0.00;0.62;2.90;2.33;;;20.70;23.00;;;;;;2258953;61;20375;-63
2023/02/07 08:04:38;0.00;0.00;0.62;0.00;0.00;0.62;3.93;2.27;;;20.70;23.00;;;;;;2258892;61;20365;-65
2023/02/07 08:07:22;0.00;0.00;0.62;0.00;0.00;0.62;2.50;1.83;;;20.60;22.90;;;;;;2260033;61;20372;-61
2023/02/07 08:10:08;0.00;0.00;0.62;0.00;0.00;0.62;2.27;2.00;;;20.60;23.50;;;;;;2259444;61;20424;-66
2023/02/07 08:12:53;0.00;0.00;0.62;0.00;0.00;0.62;2.90;2.13;;;20.60;23.00;;;;;;2260309;61;20508;-63
2023/02/07 08:15:38;0.00;0.00;0.62;0.00;0.00;0.62;3.00;2.20;;;20.60;23.00;;;;;;2260356;61;20377;-64
2023/02/07 08:18:23;0.00;0.00;0.62;0.00;0.00;0.62;2.70;2.10;;;20.60;23.00;;;;;;2259195;61;20384;-61
2023/02/07 08:21:09;0.00;0.00;0.62;0.00;0.00;0.62;3.00;1.57;;;20.60;23.00;;;;;;2260433;61;20376;-61
2023/02/07 08:23:55;0.00;0.00;0.62;0.00;0.00;0.62;2.70;2.00;;;20.60;23.00;;;;;;2260099;61;20373;-65
2023/02/07 08:26:40;0.00;0.00;0.62;0.00;0.00;0.62;2.73;2.27;;;20.60;23.00;;;;;;2259510;61;20361;-63
2023/02/07 08:29:24;0.00;0.00;0.62;0.00;0.00;0.62;2.33;1.67;;;20.60;23.00;;;;;;2260263;61;20372;-64
2023/02/07 08:32:09;0.00;0.00;0.62;0.00;0.00;0.62;2.57;1.97;;;20.60;23.10;;;;;;2259982;61;20392;-66
2023/02/07 08:34:54;0.00;0.00;0.62;0.00;0.00;0.62;2.17;1.70;;;20.60;23.10;;;;;;2260180;61;20364;-63
2023/02/07 08:37:40;0.00;0.00;0.62;0.00;0.00;0.62;2.63;2.07;;;20.60;23.10;;;;;;2259891;61;20473;-61
2023/02/07 08:40:25;0.00;0.00;0.62;0.00;0.00;0.62;3.00;2.13;;;20.60;23.10;;;;;;2259441;61;20523;-62
2023/02/07 08:43:11;0.00;0.00;0.62;0.00;0.00;0.62;2.97;2.33;;;20.70;23.20;;;;;;2256810;61;20361;-61
2023/02/07 08:45:55;0.00;0.00;0.62;0.00;0.00;0.62;2.23;1.73;;;20.70;23.20;;;;;;2260237;61;20366;-64
2023/02/07 08:48:40;0.00;0.00;0.62;0.00;0.00;0.62;2.93;2.13;;;20.70;23.20;;;;;;2259576;61;20356;-60
2023/02/07 08:51:25;0.00;0.00;0.62;0.00;0.00;0.62;2.70;2.10;;;20.70;23.20;;;;;;2259638;61;20396;-62
2023/02/07 08:54:11;0.00;0.00;0.62;0.00;0.00;0.62;1.90;1.70;;;20.70;23.20;;;;;;2240733;61;1175951;-64
2023/02/07 08:56:56;0.00;0.00;0.62;0.00;0.00;0.62;2.23;1.73;;;20.70;23.20;;;;;;2260003;61;20349;-64
2023/02/07 08:59:41;0.00;0.00;0.62;0.00;0.00;0.62;2.10;1.70;;;20.70;23.20;;;;;;2260693;61;20372;-62
2023/02/07 09:02:26;0.00;0.00;0.62;0.00;0.00;0.62;2.73;1.93;;;20.80;23.30;;;;;;2259630;61;20444;-63
2023/02/07 09:05:11;0.00;0.00;0.62;0.00;0.00;0.62;2.53;1.50;;;20.80;23.30;;;;;;2260939;61;20409;-64
2023/02/07 09:07:56;0.00;0.00;0.62;0.00;0.00;0.62;2.03;1.50;;;20.80;23.30;;;;;;2261084;61;20419;-62
2023/02/07 09:10:42;0.00;0.00;0.62;0.00;0.00;0.62;2.30;1.60;;;20.80;23.30;;;;;;2260491;61;20956;-65
2023/02/07 09:13:26;0.00;0.00;0.62;0.00;0.00;0.62;1.53;1.17;;;20.80;23.30;;;;;;2261264;61;20369;-64
2023/02/07 09:16:13;0.00;0.00;0.62;0.00;0.00;0.62;2.60;2.00;;;20.80;23.30;;;;;;2260748;61;20414;-64
2023/02/07 09:18:57;0.00;0.00;0.62;0.00;0.00;0.62;1.97;1.70;;;20.80;23.30;;;;;;2260901;61;20901;-64
2023/02/07 09:21:43;0.00;0.00;0.62;0.00;0.00;0.62;1.80;1.43;;;20.90;23.30;;;;;;2261422;61;20396;-64
2023/02/07 09:24:28;0.00;0.00;0.62;0.00;0.00;0.62;2.40;1.60;;;20.90;23.30;;;;;;2260460;61;20366;-62
2023/02/07 09:27:13;0.00;0.00;0.62;0.00;0.00;0.62;2.10;1.60;;;20.90;23.30;;;;;;2260813;61;20411;-65
2023/02/07 09:29:58;0.00;0.00;0.62;0.00;0.00;0.62;2.10;1.67;;;20.90;23.30;;;;;;2261132;61;20388;-64
2023/02/07 09:32:43;0.00;0.00;0.62;0.00;0.00;0.62;2.47;1.60;;;20.90;23.30;;;;;;2260540;61;20439;-64
2023/02/07 09:35:27;0.00;0.00;0.62;0.00;0.00;0.62;2.30;2.00;;;20.90;23.30;;;;;;2261133;61;20784;-63
2023/02/07 09:38:16;0.00;0.00;0.62;0.00;0.00;0.62;2.10;1.60;;;20.90;23.40;;;;;;2260607;61;20495;-62
2023/02/07 09:41:01;0.00;0.00;0.62;0.00;0.00;0.62;1.80;1.40;;;20.90;23.30;;;;;;2260807;61;20384;-64
2023/02/07 09:44:02;0.00;0.00;0.62;0.00;0.00;0.62;2.07;1.73;;;21.00;23.40;;;;;;2261248;61;20361;-64
2023/02/07 09:46:53;0.00;0.00;0.62;0.00;0.00;0.62;1.70;1.40;;;21.00;23.40;;;;;;2259980;61;20365;-64
2023/02/07 09:49:42;0.00;0.00;0.62;0.00;0.00;0.62;2.00;1.50;;;21.00;23.40;;;;;;2261170;61;20830;-64
2023/02/07 09:52:34;0.00;0.00;0.62;0.00;0.00;0.62;1.80;1.40;;;21.00;23.40;;;;;;2261187;61;20393;-63
2023/02/07 09:55:24;0.00;0.00;0.62;0.00;0.00;0.62;1.70;1.33;;;21.00;23.40;;;;;;2260407;61;20424;-64
2023/02/07 09:58:16;0.00;0.00;0.62;0.00;0.00;0.62;1.77;1.33;;;21.10;23.50;;;;;;2260990;61;20376;-64
2023/02/07 10:01:09;0.00;0.00;0.62;0.00;0.00;0.62;1.90;1.60;;;21.10;23.90;;;;;;2260427;61;20400;-64
2023/02/07 10:04:06;0.00;0.00;0.62;0.00;0.00;0.62;2.20;1.50;;;21.10;23.50;;;;;;2260992;61;20373;-64
2023/02/07 10:06:55;0.00;0.00;0.62;0.00;0.00;0.62;1.93;1.50;;;21.10;23.50;;;;;;2260731;61;20357;-64
2023/02/07 10:09:43;0.00;0.00;0.62;0.00;0.00;0.62;2.10;1.40;;;21.10;23.50;;;;;;2260345;61;20361;-64
2023/02/07 10:13:04;0.00;0.00;0.62;0.00;0.00;0.62;1.70;1.17;;;21.20;23.50;;;;;;2261111;61;20443;-62
2023/02/07 10:16:06;0.00;0.00;0.62;0.00;0.00;0.62;1.97;1.40;;;21.20;23.50;;;;;;2257445;61;20369;-64
2023/02/07 10:18:59;0.00;0.00;0.62;0.00;0.00;0.62;2.13;1.90;;;21.20;23.50;;;;;;2261139;61;20757;-63
2023/02/07 10:21:56;0.00;0.00;0.62;0.00;0.00;0.62;2.13;1.33;;;21.20;23.50;;;;;;2261335;61;20420;-62
2023/02/07 10:25:17;0.00;0.00;0.62;0.00;0.00;0.62;2.37;1.30;;;21.30;23.60;;;;;;2260373;61;20361;-63
2023/02/07 10:28:25;0.00;0.00;0.62;0.00;0.00;0.62;2.00;1.40;;;21.30;23.70;;;;;;2260746;61;20353;-63
2023/02/07 10:31:16;0.00;0.00;0.62;0.00;0.00;0.62;2.10;1.87;;;21.30;23.60;;;;;;2260423;61;20944;-61
2023/02/07 10:34:10;0.00;0.00;0.62;0.00;0.00;0.62;1.90;1.40;;;21.30;23.60;;;;;;2260655;61;20549;-64
2023/02/07 10:36:57;0.00;0.00;0.62;0.00;0.00;0.62;2.00;1.30;;;21.40;23.70;;;;;;2260463;61;20364;-64
2023/02/07 10:39:47;0.00;0.00;0.62;0.00;0.00;0.62;1.80;1.10;;;21.40;23.70;;;;;;2260641;61;20372;-63
2023/02/07 10:42:36;0.00;0.00;0.62;0.00;0.00;0.62;1.90;1.40;;;21.40;23.70;;;;;;2260855;61;20449;-63
2023/02/07 10:45:21;0.00;0.00;0.62;0.00;0.00;0.62;2.00;1.60;;;21.50;23.80;;;;;;2260386;61;20404;-64
2023/02/07 10:48:13;0.00;0.00;0.62;0.00;0.00;0.62;1.73;1.10;;;21.50;23.80;;;;;;2260768;61;20491;-64
2023/02/07 10:51:00;0.00;0.00;0.62;0.00;0.00;0.62;1.83;1.40;;;21.50;23.80;;;;;;2260899;61;20947;-64
2023/02/07 10:53:48;0.00;0.00;0.62;0.00;0.00;0.62;1.77;1.27;;;21.60;23.80;;;;;;2260259;61;20383;-64
2023/02/07 10:56:36;0.00;0.00;0.62;0.00;0.00;0.62;1.70;1.30;;;21.60;23.80;;;;;;2260880;61;20451;-64
2023/02/07 10:59:44;0.00;0.00;0.62;0.00;0.00;0.62;1.80;1.20;;;21.60;23.80;;;;;;2260772;61;20365;-64
2023/02/07 11:02:48;0.00;0.00;0.62;0.00;0.00;0.62;1.50;1.10;;;21.70;23.90;;;;;;2260486;61;20373;-64
2023/02/07 11:05:57;0.00;0.00;0.62;0.00;0.00;0.62;1.70;1.13;;;21.70;23.90;;;;;;2257640;61;20404;-64
2023/02/07 11:08:42;0.00;0.00;0.62;0.00;0.00;0.62;1.50;1.10;;;21.80;23.90;;;;;;2260595;61;20431;-62